• Join FlightAware (Why Join?)
  • Login
  • US Flag 
08:35AM EDT


 

Airport Tracker/Info


-or-


 

Live Flight TrackerFlight Track Log ✈ BJS542 ✈ 12-Aug-2013 ✈ KHPN - KPWM

Flight Track Log - Related Links

Times and Time Zones

All times are in EDT time to prevent confusion due to time zone crossing. See the BJS542 flight status page for this flight to view local times or setup timezone preferences in your user account.

Time Position Orientation Groundspeed Altitude Reporting Facility
EDT Latitude Longitude Course Direction KTS MPH feet Rate Location/Type
09:21PM 41.0500 -73.7000 53° Northeast 170 196 1,400  Level New York TRACON
09:22PM 41.0500 -73.7500 270° West 199 229 2,100 1,440 Climbing New York TRACON
09:23PM 41.1000 -73.7500 360° North 234 269 4,300 2,700 Climbing New York TRACON
09:25PM 41.1625 -73.6367 54° Northeast 287 330 9,000 2,580 Climbing Boston Center
09:26PM 41.2092 -73.5328 59° Northeast 287 330 10,900 1,560 Climbing Boston Center
09:27PM 41.2940 -73.2775 53° Northeast  Level FlightAware Approximate
09:27PM 41.2561 -73.4231 60° Northeast 346 398 12,200  Level Boston Center
09:28PM 41.3325 -73.2583 58° Northeast 393 452 14,100 1,620 Climbing Boston Center
09:29PM 41.3875 -73.1292 60° Northeast 400 460 15,700 1,320 Climbing Boston Center
09:30PM 41.4403 -73.0106 59° Northeast 400 460 16,800 600 Climbing Boston Center
09:31PM 41.5056 -72.8642 59° Northeast 406 467 17,000 60 Climbing Boston Center
09:32PM 41.5600 -72.7397 60° Northeast 423 487 17,000  Level Boston Center
09:33PM 41.6292 -72.5900 58° Northeast 423 487 17,000  Level Boston Center
09:34PM 41.6836 -72.4678 59° Northeast 423 487 17,000  Level Boston Center
09:35PM 41.7481 -72.3233 59° Northeast 418 481 17,000  Level Boston Center
09:36PM 41.7978 -72.2144 58° Northeast 426 490 17,000  Level Boston Center
09:37PM 41.8683 -72.0581 59° Northeast 413 475 17,000  Level Boston Center
09:38PM 41.9219 -71.9378 59° Northeast 413 475 17,000  Level Boston Center
09:39PM 41.9881 -71.7894 59° Northeast 413 475 17,000  Level Boston Center
09:40PM 42.0433 -71.6686 58° Northeast 413 475 17,000  Level Boston Center
09:41PM 42.1008 -71.5364 60° Northeast 413 475 17,000  Level Boston Center
09:42PM 42.1683 -71.3869 59° Northeast 413 475 17,000  Level Boston Center
09:43PM 42.2233 -71.2597 60° Northeast 418 481 17,000  Level Boston Center
09:44PM 42.2906 -71.1069 59° Northeast 424 488 17,000  Level Boston Center
09:45PM 42.3533 -70.9681 59° Northeast 424 488 17,000  Level Boston Center
09:46PM 42.4139 -70.8314 59° Northeast 423 487 17,000  Level Boston Center
09:47PM 42.4939 -70.7394 40° Northeast 411 473 17,000  Level Boston Center
09:48PM 42.6139 -70.6797 20° North 401 461 17,000  Level Boston Center
09:49PM 42.7192 -70.6172 24° Northeast 411 473 17,000  Level Boston Center
09:50PM 42.8244 -70.5492 25° Northeast 417 480 17,000 -300 Level Boston Center
09:51PM 42.9297 -70.4833 25° Northeast 417 480 16,400 -1,500 Descending Boston Center
09:52PM 43.0306 -70.4178 25° Northeast 407 468 14,000 -2,160 Descending Boston Center
09:53PM 43.1128 -70.3525 30° Northeast 382 440 12,100 -1,860 Descending Boston Center
09:54PM 43.2153 -70.3689 353° North 347 399 10,300 -1,620 Descending Boston Center
09:55PM 43.2906 -70.3919 347° North 313 360 8,900 -1,680 Descending Boston Center
09:56PM 43.3744 -70.4178 347° North 287 330 7,000 -1,860 Descending Boston Center
09:57PM 43.4394 -70.4414 345° North 280 322 5,300 -1,020 Descending Boston Center
09:58PM 43.5192 -70.4644 348° North 269 310 5,000 -480 Descending Boston Center
09:59PM 43.5819 -70.4797 350° North 256 295 4,400 -1,140 Descending Boston Center
10:00PM 43.6442 -70.4633 11° North 224 258 2,800 -1,560 Descending Boston Center
10:01PM 43.6517 -70.4086 79° East 151 174 1,400 -1,200 Descending Boston Center
10:02PM 43.6483 -70.3456 94° East 136 157 400 -600 Descending Boston Center
10:03PM 43.6494 -70.2908 88° East 141 162 200 5,340 Descending Boston Center
10:04PM 43.6483 -70.2336 92° East 141 162 11,000 5,460 Climbing Boston Center
10:05PM 43.6472 -70.1761 92° East 141 162 11,000  Level Boston Center
10:06PM 43.6461 -70.1189 92° East 141 162 11,000  Level Boston Center
10:08PM 43.6456 -70.3086 270° West  Level Estimated
10:15PM 43.6456 -70.3086 37° Northeast  Level Estimated
10:16PM 43.6456 -70.3086 37° Northeast  Level Estimated
10:17PM 43.6456 -70.3086 37° Northeast  Level Estimated